Time;durP1;ratioP1;P1;durP2;ratioP2;P2;SDS_P1;SDS_P2;PMS_P1;PMS_P2;Temp;Humidity;BMP_temperature;BMP_pressure;BME280_temperature;BME280_humidity;BME280_pressure;Samples;Min_cycle;Max_cycle;Signal;HPM_P1;HPM_P2
2023/10/05 00:02:55;;;;;;;11.18;10.68;;;;;;;;;;5107380;27;20054;-70
2023/10/05 00:05:22;;;;;;;11.40;10.90;;;;;;;;;;5090629;28;20044;-70
2023/10/05 00:07:47;;;;;;;11.10;10.60;;;;;;;;;;5095811;28;20027;-71
2023/10/05 00:10:14;;;;;;;11.30;10.80;;;;;;;;;;5089406;28;20016;-69
2023/10/05 00:12:39;;;;;;;11.13;10.63;;;;;;;;;;5097357;28;20024;-69
2023/10/05 00:17:38;;;;;;;11.00;10.50;;;;;;;;;;5092351;28;20050;-70
2023/10/05 00:20:10;;;;;;;11.30;10.80;;;;;;;;;;5062297;28;20099;-72
2023/10/05 00:22:36;;;;;;;11.77;11.27;;;;;;;;;;5091438;28;20016;-69
2023/10/05 00:25:04;;;;;;;11.30;10.80;;;;;;;;;;5095934;28;20081;-72
2023/10/05 00:27:29;;;;;;;10.85;10.35;;;;;;;;;;5093661;28;20055;-70
2023/10/05 00:29:57;;;;;;;11.00;10.50;;;;;;;;;;5072188;28;20447;-71
2023/10/05 00:32:25;;;;;;;10.90;10.40;;;;;;;;;;5089955;28;20028;-71
2023/10/05 00:34:52;;;;;;;11.10;10.60;;;;;;;;;;5090062;28;20055;-71
2023/10/05 00:37:17;;;;;;;11.13;10.63;;;;;;;;;;5097395;28;20482;-69
2023/10/05 00:39:47;;;;;;;11.07;10.57;;;;;;;;;;5072654;28;20032;-70
2023/10/05 00:42:15;;;;;;;10.75;10.25;;;;;;;;;;5073498;28;20020;-70
2023/10/05 00:44:41;;;;;;;10.98;10.48;;;;;;;;;;5090014;28;20024;-70
2023/10/05 00:47:07;;;;;;;10.57;10.07;;;;;;;;;;5091066;28;20024;-69
2023/10/05 00:52:18;;;;;;;10.60;10.10;;;;;;;;;;5093439;28;20031;-71
2023/10/05 00:54:51;;;;;;;10.68;10.18;;;;;;;;;;5086601;28;20536;-71
2023/10/05 00:57:19;;;;;;;10.75;10.25;;;;;;;;;;5092635;28;20489;-71
2023/10/05 00:59:56;;;;;;;11.45;10.95;;;;;;;;;;5077148;28;20641;-70
2023/10/05 01:02:21;;;;;;;11.27;10.77;;;;;;;;;;5084755;28;20020;-70
2023/10/05 01:04:56;;;;;;;10.90;10.40;;;;;;;;;;5094176;28;20436;-71
2023/10/05 01:12:38;;;;;;;11.10;10.60;;;;;;;;;;5103661;27;20084;-70
2023/10/05 01:15:09;;;;;;;11.60;11.10;;;;;;;;;;5112462;28;20055;-71
2023/10/05 01:17:35;;;;;;;11.20;10.70;;;;;;;;;;5109537;28;20757;-70
2023/10/05 01:20:09;;;;;;;10.75;10.25;;;;;;;;;;5089605;28;20406;-70
2023/10/05 01:22:38;;;;;;;;;;;;;;;;;;5104720;28;20030;-70
2023/10/05 01:25:04;;;;;;;10.77;10.27;;;;;;;;;;5109853;27;19911;-70
2023/10/05 01:27:37;;;;;;;10.88;10.38;;;;;;;;;;5105078;27;20081;-71
2023/10/05 01:30:03;;;;;;;11.00;10.50;;;;;;;;;;5104393;27;20031;-70
2023/10/05 01:32:29;;;;;;;10.90;10.40;;;;;;;;;;5108462;27;20072;-70
2023/10/05 01:34:55;;;;;;;11.00;10.50;;;;;;;;;;5100086;27;20027;-71
2023/10/05 01:37:26;;;;;;;11.05;10.55;;;;;;;;;;5104686;28;20020;-70
2023/10/05 01:39:52;;;;;;;10.60;10.10;;;;;;;;;;5105684;28;20015;-69
2023/10/05 01:42:18;;;;;;;11.23;10.73;;;;;;;;;;5106211;27;20019;-70
2023/10/05 01:44:49;;;;;;;10.90;10.40;;;;;;;;;;5090423;28;20532;-71
2023/10/05 01:47:16;;;;;;;10.95;10.45;;;;;;;;;;5104345;27;20121;-70
2023/10/05 01:49:45;;;;;;;10.63;10.13;;;;;;;;;;5107268;27;20023;-71
2023/10/05 01:52:11;;;;;;;10.85;10.35;;;;;;;;;;5104061;27;20047;-71
2023/10/05 01:54:43;;;;;;;10.98;10.48;;;;;;;;;;5097182;28;20062;-70
2023/10/05 01:57:09;;;;;;;10.48;9.98;;;;;;;;;;5106370;27;20023;-71
2023/10/05 01:59:35;;;;;;;10.63;10.13;;;;;;;;;;5082402;28;20028;-70
2023/10/05 02:02:01;;;;;;;10.77;10.27;;;;;;;;;;5108605;27;20497;-70
2023/10/05 02:04:27;;;;;;;10.90;10.40;;;;;;;;;;5109955;27;20023;-69
2023/10/05 02:06:53;;;;;;;10.88;10.38;;;;;;;;;;5100951;28;20125;-70
2023/10/05 02:09:21;;;;;;;11.20;10.70;;;;;;;;;;5109216;27;20094;-69
2023/10/05 02:11:49;;;;;;;11.75;11.25;;;;;;;;;;5090093;28;20024;-70
2023/10/05 02:14:16;;;;;;;10.93;10.43;;;;;;;;;;5108131;28;20391;-70
2023/10/05 02:16:48;;;;;;;11.18;10.68;;;;;;;;;;5105904;28;20110;-71
2023/10/05 02:19:14;;;;;;;11.60;11.10;;;;;;;;;;5095196;28;20575;-70
2023/10/05 02:21:39;;;;;;;10.88;10.38;;;;;;;;;;5109744;28;20015;-70
2023/10/05 02:26:40;;;;;;;11.15;10.65;;;;;;;;;;5109266;28;20053;-71
2023/10/05 02:29:15;;;;;;;10.82;10.32;;;;;;;;;;5103887;28;20019;-71
2023/10/05 02:31:56;;;;;;;11.35;10.85;;;;;;;;;;5103795;28;20020;-71
2023/10/05 02:34:21;;;;;;;11.40;10.90;;;;;;;;;;5105189;28;20028;-69
2023/10/05 02:36:46;;;;;;;11.10;10.60;;;;;;;;;;5104706;28;20080;-71
2023/10/05 02:39:12;;;;;;;10.85;10.35;;;;;;;;;;5103543;28;20024;-71
2023/10/05 02:41:43;;;;;;;10.93;10.43;;;;;;;;;;5085232;28;20386;-71
2023/10/05 02:44:27;;;;;;;11.30;10.80;;;;;;;;;;5102969;28;20034;-71
2023/10/05 02:46:52;;;;;;;11.75;11.18;;;;;;;;;;5103723;28;20016;-72
2023/10/05 02:49:18;;;;;;;10.88;10.38;;;;;;;;;;5092282;28;20027;-70
2023/10/05 02:51:44;;;;;;;11.48;10.98;;;;;;;;;;5105147;28;20048;-71
2023/10/05 02:54:10;;;;;;;11.23;10.73;;;;;;;;;;5105021;28;20023;-70
2023/10/05 02:56:39;;;;;;;10.93;10.43;;;;;;;;;;5085398;28;20111;-70
2023/10/05 02:59:08;;;;;;;11.45;10.95;;;;;;;;;;5105488;28;20020;-70
2023/10/05 03:01:33;;;;;;;11.02;10.52;;;;;;;;;;5087871;28;20486;-70
2023/10/05 03:04:04;;;;;;;11.32;10.82;;;;;;;;;;5097874;28;20088;-70
2023/10/05 03:06:29;;;;;;;10.68;10.18;;;;;;;;;;5074320;28;20051;-72
2023/10/05 03:08:58;;;;;;;10.52;10.02;;;;;;;;;;5099675;28;20028;-71
2023/10/05 03:11:25;;;;;;;11.18;10.68;;;;;;;;;;5101770;28;20583;-71
2023/10/05 03:13:50;;;;;;;10.68;10.18;;;;;;;;;;5085170;28;20111;-70
2023/10/05 03:16:17;;;;;;;10.85;10.35;;;;;;;;;;5104701;28;20111;-71
2023/10/05 03:18:43;;;;;;;10.82;10.32;;;;;;;;;;5101197;28;20095;-71
2023/10/05 03:21:12;;;;;;;11.43;10.93;;;;;;;;;;5090413;28;20716;-71
2023/10/05 03:23:38;;;;;;;10.90;10.40;;;;;;;;;;5103842;28;20033;-72
2023/10/05 03:26:04;;;;;;;11.15;10.65;;;;;;;;;;5102342;28;20095;-70
2023/10/05 03:28:30;;;;;;;11.15;10.65;;;;;;;;;;5094797;27;20028;-71
2023/10/05 03:30:56;;;;;;;11.38;10.88;;;;;;;;;;5109219;27;20020;-71
2023/10/05 03:33:27;;;;;;;11.10;10.60;;;;;;;;;;5105960;27;20024;-71
2023/10/05 03:35:57;;;;;;;11.00;10.50;;;;;;;;;;5106875;28;20039;-71
2023/10/05 03:38:24;;;;;;;11.18;10.68;;;;;;;;;;5109873;28;20051;-71
2023/10/05 03:40:50;;;;;;;11.40;10.90;;;;;;;;;;5111268;27;20441;-70
2023/10/05 03:43:18;;;;;;;11.18;10.68;;;;;;;;;;5118684;27;20015;-70
2023/10/05 03:45:44;;;;;;;11.25;10.75;;;;;;;;;;5095891;27;20039;-71
2023/10/05 03:48:10;;;;;;;10.98;10.48;;;;;;;;;;5087287;28;20103;-71
2023/10/05 03:50:37;;;;;;;10.90;10.40;;;;;;;;;;5105789;27;20368;-71
2023/10/05 03:53:07;;;;;;;10.80;10.30;;;;;;;;;;5104334;28;20016;-72
2023/10/05 03:55:33;;;;;;;10.55;10.05;;;;;;;;;;5113260;27;20033;-71
2023/10/05 03:57:58;;;;;;;10.80;10.30;;;;;;;;;;5093563;28;20097;-71
2023/10/05 04:00:34;;;;;;;11.15;10.65;;;;;;;;;;5105166;27;20364;-72
2023/10/05 04:03:00;;;;;;;10.80;10.30;;;;;;;;;;5105875;27;20016;-71
2023/10/05 04:05:25;;;;;;;12.73;12.13;;;;;;;;;;5107635;27;20050;-71
2023/10/05 04:07:52;;;;;;;11.77;11.20;;;;;;;;;;5108626;28;20039;-71
2023/10/05 04:10:23;;;;;;;12.07;11.48;;;;;;;;;;5086832;27;20084;-70
2023/10/05 04:12:51;;;;;;;10.90;10.40;;;;;;;;;;5108126;28;20386;-71
2023/10/05 04:15:18;;;;;;;11.63;11.10;;;;;;;;;;5103581;28;20482;-71
2023/10/05 04:17:44;;;;;;;11.05;10.55;;;;;;;;;;5103031;28;20080;-71
2023/10/05 04:20:17;;;;;;;11.75;11.18;;;;;;;;;;5084731;28;20027;-71
2023/10/05 04:22:42;;;;;;;11.35;10.85;;;;;;;;;;5084205;28;20034;-71
2023/10/05 04:25:08;;;;;;;11.48;10.98;;;;;;;;;;5089888;28;20019;-71
2023/10/05 04:27:34;;;;;;;10.73;10.23;;;;;;;;;;5109165;28;20024;-70
2023/10/05 04:29:59;;;;;;;11.38;10.88;;;;;;;;;;5108421;27;20023;-71
2023/10/05 04:32:26;;;;;;;11.43;10.93;;;;;;;;;;5106529;27;20024;-69
2023/10/05 04:34:52;;;;;;;11.93;11.32;;;;;;;;;;5106704;27;20039;-70
2023/10/05 04:37:17;;;;;;;11.02;10.52;;;;;;;;;;5111602;27;20040;-70
2023/10/05 04:39:43;;;;;;;11.55;11.05;;;;;;;;;;5102144;27;20035;-70
2023/10/05 04:42:14;;;;;;;11.95;11.35;;;;;;;;;;5109385;27;20016;-70
2023/10/05 04:44:41;;;;;;;11.80;11.27;;;;;;;;;;5104709;27;20023;-70
2023/10/05 04:47:06;;;;;;;11.43;10.93;;;;;;;;;;5082428;27;20024;-71
2023/10/05 04:49:32;;;;;;;11.30;10.80;;;;;;;;;;5104968;27;20031;-70
2023/10/05 04:51:59;;;;;;;11.65;11.15;;;;;;;;;;5093558;28;20028;-71
2023/10/05 04:54:31;;;;;;;11.57;11.07;;;;;;;;;;5089240;27;20401;-70
2023/10/05 04:57:06;;;;;;;11.27;10.77;;;;;;;;;;5089296;28;20027;-70
2023/10/05 05:02:00;;;;;;;11.73;11.23;;;;;;;;;;5103928;27;20027;-69
2023/10/05 05:07:11;;;;;;;11.23;10.73;;;;;;;;;;5105760;28;20084;-70
2023/10/05 05:09:39;;;;;;;11.65;11.15;;;;;;;;;;5102401;28;20016;-69
2023/10/05 05:12:16;;;;;;;12.20;11.70;;;;;;;;;;5103283;27;20080;-69
2023/10/05 05:14:41;;;;;;;11.48;10.98;;;;;;;;;;5104414;28;20023;-69
2023/10/05 05:17:07;;;;;;;11.13;10.63;;;;;;;;;;5103347;28;20023;-69
2023/10/05 05:19:35;;;;;;;12.20;11.70;;;;;;;;;;5101227;27;20028;-70
2023/10/05 05:22:02;;;;;;;11.85;11.35;;;;;;;;;;5101478;27;20749;-70
2023/10/05 05:24:31;;;;;;;12.00;11.50;;;;;;;;;;5100116;27;20027;-69
2023/10/05 05:27:00;;;;;;;11.57;11.07;;;;;;;;;;5086658;28;20016;-71
2023/10/05 05:29:27;;;;;;;11.95;11.45;;;;;;;;;;5086032;28;20061;-69
2023/10/05 05:31:52;;;;;;;11.65;11.15;;;;;;;;;;5083024;28;20099;-70
2023/10/05 05:34:17;;;;;;;12.00;11.50;;;;;;;;;;5100530;27;20103;-69
2023/10/05 05:36:43;;;;;;;11.52;11.02;;;;;;;;;;5080127;28;20031;-69
2023/10/05 05:39:14;;;;;;;11.77;11.27;;;;;;;;;;5098064;28;20030;-70
2023/10/05 05:41:40;;;;;;;11.98;11.48;;;;;;;;;;5103860;27;20039;-69
2023/10/05 05:44:07;;;;;;;11.57;11.07;;;;;;;;;;5074744;28;20411;-70
2023/10/05 05:46:32;;;;;;;11.95;11.45;;;;;;;;;;5103298;27;20028;-69
2023/10/05 05:48:57;;;;;;;12.13;11.63;;;;;;;;;;5098723;28;20089;-69
2023/10/05 05:51:24;;;;;;;12.02;11.52;;;;;;;;;;5085035;28;20073;-70
2023/10/05 05:53:50;;;;;;;12.00;11.50;;;;;;;;;;5098708;28;20091;-70
2023/10/05 05:56:28;;;;;;;12.02;11.52;;;;;;;;;;5098823;28;20386;-70
2023/10/05 05:58:53;;;;;;;11.98;11.48;;;;;;;;;;5095572;28;20024;-70
2023/10/05 06:01:20;;;;;;;12.02;11.52;;;;;;;;;;5098400;28;20026;-70
2023/10/05 06:03:49;;;;;;;11.88;11.38;;;;;;;;;;5101144;28;20015;-71
2023/10/05 06:06:15;;;;;;;11.80;11.30;;;;;;;;;;5078341;28;20040;-71
2023/10/05 06:08:41;;;;;;;12.98;12.38;;;;;;;;;;5105377;27;20020;-70
2023/10/05 06:11:08;;;;;;;11.98;11.48;;;;;;;;;;5107744;27;20108;-75
2023/10/05 06:13:36;;;;;;;12.32;11.82;;;;;;;;;;5101286;28;20394;-67
2023/10/05 06:16:06;;;;;;;11.70;11.20;;;;;;;;;;5103755;28;20367;-67
2023/10/05 06:18:32;;;;;;;11.98;11.48;;;;;;;;;;5098598;28;20020;-68
2023/10/05 06:20:57;;;;;;;12.45;11.88;;;;;;;;;;5087183;28;20453;-65
2023/10/05 06:23:22;;;;;;;12.30;11.80;;;;;;;;;;5096129;28;20080;-67
2023/10/05 06:25:48;;;;;;;11.93;11.43;;;;;;;;;;5105227;28;20480;-66
2023/10/05 06:28:13;;;;;;;12.10;11.60;;;;;;;;;;5098735;28;20259;-65
2023/10/05 06:30:39;;;;;;;11.98;11.48;;;;;;;;;;5106624;28;20031;-65
2023/10/05 06:33:07;;;;;;;12.18;11.68;;;;;;;;;;5102384;28;20036;-65
2023/10/05 06:35:32;;;;;;;12.50;11.90;;;;;;;;;;5102799;28;20028;-65
2023/10/05 06:37:58;;;;;;;12.25;11.75;;;;;;;;;;5099047;28;20043;-64
2023/10/05 06:40:23;;;;;;;12.57;11.98;;;;;;;;;;5100765;28;20028;-64
2023/10/05 06:42:49;;;;;;;12.23;11.73;;;;;;;;;;5096383;28;20128;-63
2023/10/05 06:45:15;;;;;;;12.05;11.55;;;;;;;;;;5092983;28;20283;-67
2023/10/05 06:47:40;;;;;;;12.18;11.68;;;;;;;;;;5099340;28;20655;-65
2023/10/05 06:50:10;;;;;;;12.10;11.60;;;;;;;;;;5102564;28;20043;-65
2023/10/05 06:52:39;;;;;;;12.48;11.90;;;;;;;;;;5098248;28;20081;-64
2023/10/05 06:55:07;;;;;;;12.25;11.75;;;;;;;;;;5100605;28;20059;-65
2023/10/05 06:57:35;;;;;;;11.90;11.40;;;;;;;;;;5105252;28;20023;-64
2023/10/05 07:00:03;;;;;;;12.10;11.60;;;;;;;;;;5100356;28;20279;-65
2023/10/05 07:02:28;;;;;;;12.20;11.70;;;;;;;;;;5098878;28;20055;-68
2023/10/05 07:04:53;;;;;;;12.00;11.50;;;;;;;;;;5095463;27;20423;-66
2023/10/05 07:07:19;;;;;;;12.18;11.68;;;;;;;;;;5110042;27;20020;-66
2023/10/05 07:09:44;;;;;;;12.05;11.55;;;;;;;;;;5107874;27;20028;-68
2023/10/05 07:12:10;;;;;;;12.07;11.57;;;;;;;;;;5105808;27;20215;-66
2023/10/05 07:14:36;;;;;;;12.48;11.90;;;;;;;;;;5105210;27;22719;-65
2023/10/05 07:17:01;;;;;;;12.20;11.70;;;;;;;;;;5103861;27;20028;-68
2023/10/05 07:19:26;;;;;;;12.57;11.98;;;;;;;;;;5097010;27;20031;-67
2023/10/05 07:21:52;;;;;;;12.30;11.80;;;;;;;;;;5105233;27;20024;-67
2023/10/05 07:24:17;;;;;;;12.27;11.77;;;;;;;;;;5094110;27;20032;-66
2023/10/05 07:26:42;;;;;;;12.50;11.95;;;;;;;;;;5094847;27;20023;-66
2023/10/05 07:29:08;;;;;;;12.20;11.70;;;;;;;;;;5095415;27;20056;-66
2023/10/05 07:31:35;;;;;;;12.27;11.77;;;;;;;;;;5085590;28;20608;-66
2023/10/05 07:34:00;;;;;;;12.05;11.55;;;;;;;;;;5099941;28;20028;-67
2023/10/05 07:36:26;;;;;;;12.25;11.75;;;;;;;;;;5104870;28;20588;-67
2023/10/05 07:38:51;;;;;;;12.13;11.63;;;;;;;;;;5110470;27;20479;-66
2023/10/05 07:41:16;;;;;;;12.13;11.63;;;;;;;;;;5102787;28;20260;-66
2023/10/05 07:43:43;;;;;;;12.10;11.60;;;;;;;;;;5097421;27;20268;-67
2023/10/05 07:46:09;;;;;;;12.25;11.75;;;;;;;;;;5105045;28;20267;-66
2023/10/05 07:48:34;;;;;;;11.95;11.45;;;;;;;;;;5104947;27;20039;-66
2023/10/05 07:51:00;;;;;;;12.10;11.60;;;;;;;;;;5094655;28;20020;-65
2023/10/05 07:53:25;;;;;;;12.05;11.55;;;;;;;;;;5096901;27;20234;-68
2023/10/05 07:55:52;;;;;;;11.90;11.40;;;;;;;;;;5092831;27;20035;-67
2023/10/05 07:58:19;;;;;;;12.10;11.60;;;;;;;;;;5087953;27;20877;-69
2023/10/05 08:00:45;;;;;;;12.07;11.57;;;;;;;;;;5087259;27;20478;-65
2023/10/05 08:03:11;;;;;;;11.68;11.18;;;;;;;;;;5089049;27;20012;-66
2023/10/05 08:05:36;;;;;;;11.63;11.13;;;;;;;;;;5090058;27;20490;-65
2023/10/05 08:08:02;;;;;;;11.95;11.45;;;;;;;;;;5090150;27;20030;-68
2023/10/05 08:10:28;;;;;;;12.02;11.52;;;;;;;;;;5085297;28;20031;-68
2023/10/05 08:12:53;;;;;;;12.20;11.70;;;;;;;;;;5075854;28;20032;-65
2023/10/05 08:15:19;;;;;;;12.52;11.95;;;;;;;;;;5087907;27;20024;-65
2023/10/05 08:17:45;;;;;;;12.05;11.55;;;;;;;;;;5053527;28;20028;-67
2023/10/05 08:20:11;;;;;;;12.18;11.68;;;;;;;;;;5087718;28;20073;-66
2023/10/05 08:22:37;;;;;;;11.95;11.45;;;;;;;;;;5091802;27;20459;-66
2023/10/05 08:25:11;;;;;;;11.95;11.45;;;;;;;;;;5081971;28;20023;-67
2023/10/05 08:27:38;;;;;;;11.88;11.38;;;;;;;;;;5095101;27;20089;-68
2023/10/05 08:30:04;;;;;;;11.75;11.25;;;;;;;;;;5103926;27;20015;-68
2023/10/05 08:32:33;;;;;;;11.95;11.45;;;;;;;;;;5108975;27;20429;-67
2023/10/05 08:35:06;;;;;;;11.77;11.27;;;;;;;;;;5082630;28;20429;-66
2023/10/05 08:37:37;;;;;;;11.70;11.20;;;;;;;;;;5099630;28;20039;-66
2023/10/05 08:40:06;;;;;;;12.00;11.50;;;;;;;;;;5092679;28;20024;-66
2023/10/05 08:42:34;;;;;;;12.43;11.88;;;;;;;;;;5104617;27;20031;-66
2023/10/05 08:45:00;;;;;;;12.30;11.80;;;;;;;;;;5100230;28;20038;-67
2023/10/05 08:47:26;;;;;;;12.30;11.80;;;;;;;;;;5101174;27;20738;-66
2023/10/05 08:49:52;;;;;;;12.23;11.73;;;;;;;;;;5101452;27;20441;-65
2023/10/05 08:52:20;;;;;;;12.23;11.73;;;;;;;;;;5087720;28;20110;-67
2023/10/05 08:54:46;;;;;;;12.27;11.77;;;;;;;;;;5104086;27;20367;-65
2023/10/05 08:57:14;;;;;;;12.30;11.80;;;;;;;;;;5108371;27;20027;-64
2023/10/05 08:59:45;;;;;;;12.35;11.85;;;;;;;;;;5105508;27;20494;-65
2023/10/05 09:02:11;;;;;;;12.75;12.15;;;;;;;;;;5089874;28;20028;-68
2023/10/05 09:04:47;;;;;;;12.77;12.18;;;;;;;;;;5084945;27;20508;-67
2023/10/05 09:07:38;;;;;;;12.35;11.82;;;;;;;;;;5087788;28;20100;-67
2023/10/05 09:10:05;;;;;;;12.13;11.63;;;;;;;;;;5089634;27;20099;-66
2023/10/05 09:17:55;;;;;;;12.65;12.05;;;;;;;;;;5088048;27;20066;-67
2023/10/05 09:20:30;;;;;;;12.63;12.02;;;;;;;;;;5087822;27;20023;-65
2023/10/05 09:22:56;;;;;;;12.50;11.90;;;;;;;;;;5089540;27;20028;-65
2023/10/05 09:25:27;;;;;;;12.38;11.85;;;;;;;;;;5091220;27;20031;-68
2023/10/05 09:27:58;;;;;;;12.32;11.82;;;;;;;;;;5060034;28;20123;-67
2023/10/05 09:30:29;;;;;;;12.35;11.82;;;;;;;;;;5072877;28;20088;-67
2023/10/05 09:33:07;;;;;;;12.70;12.10;;;;;;;;;;5088499;27;20032;-64
2023/10/05 09:35:33;;;;;;;12.52;11.93;;;;;;;;;;5090089;27;20384;-68
2023/10/05 09:38:13;;;;;;;12.75;12.15;;;;;;;;;;5074681;28;20042;-66
2023/10/05 09:40:38;;;;;;;12.35;11.82;;;;;;;;;;5088791;27;20024;-66
2023/10/05 09:43:05;;;;;;;12.73;12.13;;;;;;;;;;5089379;27;20020;-65
2023/10/05 09:45:31;;;;;;;13.10;12.50;;;;;;;;;;5092107;27;20012;-67
2023/10/05 09:48:03;;;;;;;12.38;11.80;;;;;;;;;;5093870;27;20122;-68
2023/10/05 09:50:29;;;;;;;13.05;12.45;;;;;;;;;;5073357;28;20384;-67
2023/10/05 09:52:59;;;;;;;13.40;12.80;;;;;;;;;;5086631;27;20148;-65
2023/10/05 09:55:24;;;;;;;13.25;12.65;;;;;;;;;;5090036;28;20047;-66
2023/10/05 09:57:55;;;;;;;13.05;12.45;;;;;;;;;;5094110;27;20117;-67
2023/10/05 10:02:54;;;;;;;13.07;12.48;;;;;;;;;;5088126;28;20142;-65
2023/10/05 10:05:29;;;;;;;13.32;12.73;;;;;;;;;;5092184;27;20091;-64
2023/10/05 10:07:56;;;;;;;12.98;12.38;;;;;;;;;;5087872;27;20825;-67
2023/10/05 10:10:24;;;;;;;12.80;12.20;;;;;;;;;;5086450;28;20057;-66
2023/10/05 10:12:51;;;;;;;13.55;12.95;;;;;;;;;;5067430;28;20037;-67
2023/10/05 10:15:28;;;;;;;13.30;12.70;;;;;;;;;;5089751;28;20032;-66
2023/10/05 10:18:09;;;;;;;12.75;12.15;;;;;;;;;;5090342;28;20027;-66
2023/10/05 10:20:37;;;;;;;13.77;13.18;;;;;;;;;;5072155;28;20031;-67
2023/10/05 10:23:27;;;;;;;12.30;11.73;;;;;;;;;;5093785;28;20015;-65
2023/10/05 10:26:05;;;;;;;12.00;11.50;;;;;;;;;;5092304;28;20016;-66
2023/10/05 10:28:43;;;;;;;13.32;12.73;;;;;;;;;;5076402;28;20023;-67
2023/10/05 10:31:30;;;;;;;13.70;13.10;;;;;;;;;;5086629;28;20044;-68
2023/10/05 10:33:56;;;;;;;13.05;12.45;;;;;;;;;;5084430;28;20455;-67
2023/10/05 10:36:41;;;;;;;12.95;12.35;;;;;;;;;;5089657;27;20046;-66
2023/10/05 10:39:22;;;;;;;13.35;12.75;;;;;;;;;;5093033;27;20080;-67
2023/10/05 10:42:04;;;;;;;12.82;12.23;;;;;;;;;;5098497;27;20019;-65
2023/10/05 10:44:34;;;;;;;13.30;12.70;;;;;;;;;;5090458;27;21364;-66
2023/10/05 10:47:14;;;;;;;12.90;12.30;;;;;;;;;;5091481;27;20558;-65
2023/10/05 10:49:40;;;;;;;12.18;11.63;;;;;;;;;;5074601;28;20035;-65
2023/10/05 10:52:16;;;;;;;13.00;12.40;;;;;;;;;;5073404;28;20554;-68
2023/10/05 10:54:45;;;;;;;12.88;12.27;;;;;;;;;;5092960;27;20514;-65
2023/10/05 10:57:16;;;;;;;12.32;11.73;;;;;;;;;;5097376;27;20494;-64
2023/10/05 10:59:41;;;;;;;12.70;12.10;;;;;;;;;;5091295;27;20058;-65
2023/10/05 11:02:14;;;;;;;12.27;11.70;;;;;;;;;;5091949;27;20099;-65
2023/10/05 11:04:39;;;;;;;12.90;12.30;;;;;;;;;;5090555;27;20034;-66
2023/10/05 11:07:09;;;;;;;12.90;12.30;;;;;;;;;;5093629;27;20051;-65
2023/10/05 11:09:48;;;;;;;13.02;12.43;;;;;;;;;;5096576;27;20041;-64
2023/10/05 11:12:17;;;;;;;12.48;11.88;;;;;;;;;;5098301;27;20015;-65
2023/10/05 11:14:43;;;;;;;12.88;12.27;;;;;;;;;;5091087;27;20074;-64
2023/10/05 11:17:31;;;;;;;12.98;12.38;;;;;;;;;;5092477;27;20035;-69
2023/10/05 11:20:15;;;;;;;12.60;12.00;;;;;;;;;;5093125;27;20031;-68
2023/10/05 11:22:42;;;;;;;13.23;12.63;;;;;;;;;;5090262;27;20107;-65
2023/10/05 11:25:15;;;;;;;12.73;12.13;;;;;;;;;;5080940;28;20015;-65
2023/10/05 11:27:41;;;;;;;12.05;11.55;;;;;;;;;;5086112;27;20026;-66
2023/10/05 11:30:07;;;;;;;12.60;12.00;;;;;;;;;;5070729;27;20043;-66
2023/10/05 11:32:33;;;;;;;12.75;12.15;;;;;;;;;;5070455;28;20020;-67
2023/10/05 11:35:04;;;;;;;12.93;12.32;;;;;;;;;;5087212;27;20031;-65
2023/10/05 11:37:32;;;;;;;13.30;12.70;;;;;;;;;;5086987;27;20024;-65
2023/10/05 11:40:00;;;;;;;12.77;12.18;;;;;;;;;;5094186;27;20043;-67
2023/10/05 11:42:27;;;;;;;12.38;11.77;;;;;;;;;;5088678;27;20131;-66
2023/10/05 11:44:59;;;;;;;12.85;12.25;;;;;;;;;;5097093;27;20032;-66
2023/10/05 11:47:32;;;;;;;12.77;12.18;;;;;;;;;;5095801;28;20479;-65
2023/10/05 11:50:03;;;;;;;12.80;12.20;;;;;;;;;;5089273;27;20020;-66
2023/10/05 11:52:29;;;;;;;12.80;12.20;;;;;;;;;;5085874;27;20097;-66
2023/10/05 11:54:54;;;;;;;12.77;12.18;;;;;;;;;;5069423;27;20080;-66
2023/10/05 11:57:20;;;;;;;13.55;12.95;;;;;;;;;;5086113;27;20035;-67
2023/10/05 11:59:45;;;;;;;12.02;11.52;;;;;;;;;;5093573;27;20088;-65
2023/10/05 12:02:11;;;;;;;11.73;11.23;;;;;;;;;;5082475;28;20024;-67
2023/10/05 12:04:41;;;;;;;11.80;11.30;;;;;;;;;;5104976;27;20031;-65
2023/10/05 12:07:08;;;;;;;12.10;11.60;;;;;;;;;;5102592;27;20127;-65
2023/10/05 12:09:42;;;;;;;12.18;11.68;;;;;;;;;;5102813;27;20133;-65
2023/10/05 12:12:10;;;;;;;12.60;12.00;;;;;;;;;;5100169;28;20436;-66
2023/10/05 12:14:36;;;;;;;12.43;11.82;;;;;;;;;;5100702;27;20088;-67
2023/10/05 12:17:03;;;;;;;11.88;11.38;;;;;;;;;;5103253;27;20377;-66
2023/10/05 12:19:28;;;;;;;12.15;11.65;;;;;;;;;;5100792;27;20024;-64
2023/10/05 12:21:59;;;;;;;11.65;11.15;;;;;;;;;;5096812;27;20391;-65
2023/10/05 12:24:26;;;;;;;11.95;11.45;;;;;;;;;;5091119;28;20066;-65
2023/10/05 12:26:52;;;;;;;11.60;11.10;;;;;;;;;;5099767;28;20035;-66
2023/10/05 12:29:17;;;;;;;12.00;11.50;;;;;;;;;;5104649;27;20107;-67
2023/10/05 12:31:44;;;;;;;11.73;11.23;;;;;;;;;;5100997;27;20493;-66
2023/10/05 12:34:14;;;;;;;11.27;10.77;;;;;;;;;;5100942;27;20043;-64
2023/10/05 12:36:40;;;;;;;11.48;10.98;;;;;;;;;;5087846;28;20483;-65
2023/10/05 12:39:11;;;;;;;11.80;11.30;;;;;;;;;;5105104;27;20024;-67
2023/10/05 12:41:40;;;;;;;11.85;11.35;;;;;;;;;;5086321;28;20024;-67
2023/10/05 12:44:09;;;;;;;11.68;11.18;;;;;;;;;;5094502;28;20058;-66
2023/10/05 12:46:39;;;;;;;11.57;11.07;;;;;;;;;;5102524;28;20103;-65
2023/10/05 12:49:08;;;;;;;11.68;11.18;;;;;;;;;;5097042;27;20052;-65
2023/10/05 12:51:34;;;;;;;11.57;11.07;;;;;;;;;;5102322;27;20174;-67
2023/10/05 12:53:59;;;;;;;12.32;11.80;;;;;;;;;;5105284;27;20058;-66
2023/10/05 12:56:25;;;;;;;11.57;11.07;;;;;;;;;;5104219;27;20083;-64
2023/10/05 12:58:50;;;;;;;11.75;11.25;;;;;;;;;;5103158;27;20028;-65
2023/10/05 13:01:15;;;;;;;11.65;11.15;;;;;;;;;;5101073;28;20053;-63
2023/10/05 13:03:40;;;;;;;12.05;11.55;;;;;;;;;;5101963;27;20016;-65
2023/10/05 13:06:10;;;;;;;11.85;11.35;;;;;;;;;;5100868;27;20464;-65
2023/10/05 13:08:36;;;;;;;11.90;11.40;;;;;;;;;;5104950;27;20490;-65
2023/10/05 13:11:03;;;;;;;12.23;11.70;;;;;;;;;;5100882;27;20030;-69
2023/10/05 13:13:29;;;;;;;12.35;11.77;;;;;;;;;;5102420;27;20024;-65
2023/10/05 13:15:54;;;;;;;12.93;12.32;;;;;;;;;;5100318;27;20022;-65
2023/10/05 13:18:19;;;;;;;11.98;11.48;;;;;;;;;;5099223;28;20028;-63
2023/10/05 13:20:47;;;;;;;12.38;11.77;;;;;;;;;;5099383;27;20365;-65
2023/10/05 13:23:12;;;;;;;11.70;11.20;;;;;;;;;;5098097;27;20027;-67
2023/10/05 13:25:43;;;;;;;11.70;11.20;;;;;;;;;;5103434;27;21375;-66
2023/10/05 13:28:11;;;;;;;12.20;11.70;;;;;;;;;;5102085;27;20023;-66
2023/10/05 13:30:42;;;;;;;11.93;11.43;;;;;;;;;;5099309;27;20551;-65
2023/10/05 13:33:13;;;;;;;11.70;11.20;;;;;;;;;;5103332;27;20039;-64
2023/10/05 13:35:41;;;;;;;11.32;10.82;;;;;;;;;;5101073;27;20034;-66
2023/10/05 13:38:08;;;;;;;11.63;11.13;;;;;;;;;;5097983;27;20023;-67
2023/10/05 13:40:36;;;;;;;11.20;10.70;;;;;;;;;;5098241;28;20049;-67
2023/10/05 13:43:03;;;;;;;11.48;10.98;;;;;;;;;;5103807;27;20045;-63
2023/10/05 13:45:28;;;;;;;11.73;11.23;;;;;;;;;;5101817;27;20433;-64
2023/10/05 13:47:54;;;;;;;11.50;11.00;;;;;;;;;;5102667;27;20054;-62
2023/10/05 13:50:22;;;;;;;12.50;11.90;;;;;;;;;;5098357;28;20104;-65
2023/10/05 13:52:50;;;;;;;11.68;11.18;;;;;;;;;;5099424;27;20793;-62
2023/10/05 13:55:19;;;;;;;11.95;11.45;;;;;;;;;;5098817;28;20047;-64
2023/10/05 13:57:44;;;;;;;11.88;11.38;;;;;;;;;;5102912;28;20502;-63
2023/10/05 14:00:18;;;;;;;11.68;11.18;;;;;;;;;;5107872;27;20030;-63
2023/10/05 14:02:44;;;;;;;12.50;11.90;;;;;;;;;;5099853;27;20030;-63
2023/10/05 14:05:09;;;;;;;11.50;11.00;;;;;;;;;;5105535;27;20043;-64
2023/10/05 14:07:35;;;;;;;11.65;11.15;;;;;;;;;;5101126;27;20107;-62
2023/10/05 14:10:00;;;;;;;11.95;11.45;;;;;;;;;;5094672;27;20016;-65
2023/10/05 14:12:28;;;;;;;12.20;11.65;;;;;;;;;;5094701;28;20107;-64
2023/10/05 14:14:53;;;;;;;11.10;10.60;;;;;;;;;;5096196;28;21067;-66
2023/10/05 14:17:19;;;;;;;12.40;11.80;;;;;;;;;;5103327;27;20016;-64
2023/10/05 14:19:45;;;;;;;13.07;12.48;;;;;;;;;;5097617;28;20039;-65
2023/10/05 14:22:12;;;;;;;12.30;11.75;;;;;;;;;;5100115;28;20046;-64
2023/10/05 14:24:40;;;;;;;11.75;11.25;;;;;;;;;;5097071;28;20398;-64
2023/10/05 14:27:05;;;;;;;12.35;11.75;;;;;;;;;;5099980;28;20077;-63
2023/10/05 14:29:36;;;;;;;12.00;11.50;;;;;;;;;;5098091;28;20024;-63
2023/10/05 14:32:05;;;;;;;12.68;12.07;;;;;;;;;;5092561;28;20031;-64
2023/10/05 14:34:33;;;;;;;11.85;11.35;;;;;;;;;;5100013;28;20032;-65
2023/10/05 14:37:01;;;;;;;11.45;10.95;;;;;;;;;;5102872;28;20031;-65
2023/10/05 14:39:32;;;;;;;12.68;12.07;;;;;;;;;;5098728;28;20049;-66
2023/10/05 14:42:01;;;;;;;11.88;11.38;;;;;;;;;;5096874;28;20030;-65
2023/10/05 14:44:29;;;;;;;11.77;11.27;;;;;;;;;;5098389;28;20024;-65
2023/10/05 14:47:03;;;;;;;12.00;11.50;;;;;;;;;;5097171;28;20051;-65
2023/10/05 14:49:31;;;;;;;12.85;12.25;;;;;;;;;;5096678;28;20031;-66
2023/10/05 14:51:57;;;;;;;11.70;11.20;;;;;;;;;;5101513;28;20011;-68